createdAt,value
2019-06-27T00:01:14.601Z,26.60
2019-06-27T00:03:48.148Z,26.60
2019-06-27T00:06:21.721Z,26.60
2019-06-27T00:08:55.402Z,26.60
2019-06-27T00:11:29.014Z,26.70
2019-06-27T00:14:02.805Z,26.80
2019-06-27T00:16:36.422Z,26.80
2019-06-27T00:19:10.021Z,26.70
2019-06-27T00:21:43.629Z,26.60
2019-06-27T00:24:17.418Z,26.50
2019-06-27T00:26:57.194Z,26.40
2019-06-27T00:29:25.461Z,26.30
2019-06-27T00:31:59.023Z,26.40
2019-06-27T00:34:32.548Z,26.40
2019-06-27T00:37:06.336Z,26.40
2019-06-27T00:39:39.951Z,26.30
2019-06-27T00:42:13.559Z,26.20
2019-06-27T00:44:47.908Z,26.00
2019-06-27T00:47:22.226Z,26.00
2019-06-27T00:49:56.047Z,26.00
2019-06-27T00:52:30.557Z,26.00
2019-06-27T00:55:05.013Z,26.00
2019-06-27T00:57:38.750Z,26.00
2019-06-27T01:00:12.359Z,26.00
2019-06-27T01:02:45.942Z,26.00
2019-06-27T01:05:19.554Z,25.90
2019-06-27T01:07:53.098Z,25.90
2019-06-27T01:10:26.748Z,25.90
2019-06-27T01:13:00.285Z,25.90
2019-06-27T01:15:34.894Z,25.90
2019-06-27T01:18:08.652Z,25.90
2019-06-27T01:20:42.455Z,25.90
2019-06-27T01:23:16.112Z,25.90
2019-06-27T01:25:49.774Z,26.00
2019-06-27T01:28:23.528Z,26.00
2019-06-27T01:30:57.285Z,25.90
2019-06-27T01:33:31.656Z,25.90
2019-06-27T01:36:06.048Z,25.90
2019-06-27T01:38:40.436Z,25.90
2019-06-27T01:41:14.229Z,25.90
2019-06-27T01:43:47.808Z,26.00
2019-06-27T01:46:21.452Z,25.90
2019-06-27T01:48:55.038Z,25.90
2019-06-27T01:51:28.585Z,25.90
2019-06-27T01:54:02.192Z,25.80
2019-06-27T01:56:35.939Z,25.80
2019-06-27T01:59:09.554Z,25.80
2019-06-27T02:01:43.328Z,25.70
2019-06-27T02:04:16.968Z,25.70
2019-06-27T02:06:51.414Z,25.70
2019-06-27T02:09:25.033Z,25.70
2019-06-27T02:11:58.606Z,25.70
2019-06-27T02:14:32.368Z,25.70
2019-06-27T02:17:05.944Z,25.70
2019-06-27T02:19:39.490Z,25.70
2019-06-27T02:22:13.916Z,25.70
2019-06-27T02:24:47.641Z,25.70
2019-06-27T02:27:21.440Z,25.70
2019-06-27T02:29:54.993Z,25.60
2019-06-27T02:32:28.556Z,25.60
2019-06-27T02:35:02.388Z,25.50
2019-06-27T02:37:36.428Z,25.50
2019-06-27T02:40:10.980Z,25.40
2019-06-27T02:42:44.601Z,25.40
2019-06-27T02:45:18.166Z,25.40
2019-06-27T02:47:51.732Z,25.30
2019-06-27T02:50:26.350Z,25.20
2019-06-27T02:52:59.961Z,25.20
2019-06-27T02:55:34.348Z,25.10
2019-06-27T02:58:29.125Z,25.10
2019-06-27T03:00:42.671Z,25.10
2019-06-27T03:03:16.253Z,25.10
2019-06-27T03:05:49.861Z,25.00
2019-06-27T03:08:24.179Z,25.00
2019-06-27T03:10:57.801Z,25.00
2019-06-27T03:13:31.487Z,25.00
2019-06-27T03:16:05.329Z,25.00
2019-06-27T03:18:38.892Z,25.00
2019-06-27T03:21:12.501Z,25.00
2019-06-27T03:23:46.244Z,25.00
2019-06-27T03:26:19.940Z,25.00
2019-06-27T03:28:54.172Z,25.00
2019-06-27T03:31:27.195Z,25.00
2019-06-27T03:34:00.916Z,25.10
2019-06-27T03:36:34.584Z,25.10
2019-06-27T03:39:08.180Z,25.10
2019-06-27T03:41:42.549Z,25.10
2019-06-27T03:44:16.298Z,25.10
2019-06-27T03:46:50.656Z,25.10
2019-06-27T03:49:24.278Z,25.10
2019-06-27T03:51:58.096Z,25.10
2019-06-27T03:54:31.742Z,25.00
2019-06-27T03:57:05.385Z,25.00
2019-06-27T03:59:39.092Z,25.00
2019-06-27T04:02:12.816Z,25.00
2019-06-27T04:04:47.211Z,25.20
2019-06-27T04:07:20.813Z,25.20
2019-06-27T04:09:54.606Z,25.30
2019-06-27T04:12:28.130Z,25.30
2019-06-27T04:15:01.784Z,25.40
2019-06-27T04:17:35.593Z,25.40
2019-06-27T04:20:09.341Z,25.40
2019-06-27T04:22:43.170Z,25.40
2019-06-27T04:25:16.925Z,25.50
2019-06-27T04:27:50.775Z,25.60
2019-06-27T04:30:24.376Z,25.60
2019-06-27T04:32:58.111Z,25.60
2019-06-27T04:35:31.806Z,25.70
2019-06-27T04:38:05.495Z,25.80
2019-06-27T04:40:39.054Z,25.80
2019-06-27T04:43:12.667Z,25.80
2019-06-27T04:45:47.015Z,25.70
2019-06-27T04:48:20.829Z,25.60
2019-06-27T04:50:54.518Z,25.70
2019-06-27T04:53:28.210Z,25.80
2019-06-27T04:56:01.801Z,25.90
2019-06-27T04:58:35.419Z,26.00
2019-06-27T05:01:09.351Z,26.00
2019-06-27T05:03:43.861Z,26.20
2019-06-27T05:06:17.521Z,26.10
2019-06-27T05:08:51.139Z,26.30
2019-06-27T05:11:25.700Z,26.50
2019-06-27T05:13:59.406Z,26.70
2019-06-27T05:16:33.887Z,27.50
2019-06-27T05:19:07.575Z,27.50
2019-06-27T05:21:41.281Z,27.90
2019-06-27T05:24:15.041Z,28.10
2019-06-27T05:26:48.675Z,27.90
2019-06-27T05:29:22.321Z,27.70
2019-06-27T05:31:56.841Z,27.50
2019-06-27T05:34:30.691Z,27.40
2019-06-27T05:37:04.275Z,27.40
2019-06-27T05:39:39.451Z,27.30
2019-06-27T05:42:13.085Z,27.20
2019-06-27T05:44:46.770Z,27.30
2019-06-27T05:47:20.381Z,27.30
2019-06-27T05:49:53.968Z,27.20
2019-06-27T05:52:27.816Z,27.10
2019-06-27T05:55:02.434Z,26.90
2019-06-27T05:57:39.610Z,26.80
2019-06-27T06:00:27.664Z,26.90
2019-06-27T06:02:47.075Z,27.10
2019-06-27T06:05:20.853Z,27.20
2019-06-27T06:07:54.605Z,27.30
2019-06-27T06:10:28.325Z,27.40
2019-06-27T06:13:02.022Z,27.40
2019-06-27T06:15:35.579Z,27.50
2019-06-27T06:18:09.129Z,27.40
2019-06-27T06:20:44.909Z,27.40
2019-06-27T06:23:19.502Z,27.50
2019-06-27T06:25:53.148Z,27.50
2019-06-27T06:28:26.743Z,27.60
2019-06-27T06:31:00.593Z,27.60
2019-06-27T06:33:34.161Z,27.60
2019-06-27T06:36:16.525Z,27.60
2019-06-27T06:38:50.258Z,27.70
2019-06-27T06:41:25.582Z,27.90
2019-06-27T06:43:59.199Z,27.80
2019-06-27T06:46:33.047Z,27.90
2019-06-27T06:49:06.751Z,27.90
2019-06-27T06:51:40.376Z,28.10
2019-06-27T06:54:14.019Z,28.10
2019-06-27T06:56:47.581Z,28.00
2019-06-27T06:59:21.355Z,28.00
2019-06-27T07:01:55.777Z,27.90
2019-06-27T07:04:29.410Z,27.90
2019-06-27T07:07:04.042Z,27.90
2019-06-27T07:09:37.633Z,27.90
2019-06-27T07:12:11.355Z,28.00
2019-06-27T07:14:45.046Z,28.00
2019-06-27T07:17:18.720Z,28.20
2019-06-27T07:19:52.655Z,28.30
2019-06-27T07:22:26.527Z,28.30
2019-06-27T07:25:00.157Z,28.30
2019-06-27T07:27:34.705Z,28.50
2019-06-27T07:30:08.576Z,28.40
2019-06-27T07:32:42.385Z,28.50
2019-06-27T07:35:15.990Z,28.50
2019-06-27T07:37:50.330Z,28.70
2019-06-27T07:40:24.154Z,28.60
2019-06-27T07:42:58.796Z,28.80
2019-06-27T07:45:33.385Z,28.80
2019-06-27T07:48:06.939Z,28.70
2019-06-27T07:50:41.398Z,28.80
2019-06-27T07:53:15.054Z,28.80
2019-06-27T07:55:48.736Z,28.80
2019-06-27T07:58:23.432Z,28.90
2019-06-27T08:00:57.189Z,28.90
2019-06-27T08:03:30.768Z,28.80
2019-06-27T08:06:05.330Z,29.10
2019-06-27T08:08:38.924Z,29.10
2019-06-27T08:11:13.223Z,30.00
2019-06-27T08:13:46.817Z,30.90
2019-06-27T08:16:20.661Z,31.60
2019-06-27T08:18:54.311Z,32.20
2019-06-27T08:21:30.908Z,32.60
2019-06-27T08:24:04.611Z,33.10
2019-06-27T08:26:38.322Z,33.60
2019-06-27T08:29:11.870Z,33.80
2019-06-27T08:31:51.592Z,34.00
2019-06-27T08:34:20.082Z,34.50
2019-06-27T08:36:53.900Z,34.50
2019-06-27T08:39:27.658Z,34.70
2019-06-27T08:42:01.329Z,34.50
2019-06-27T08:44:35.109Z,34.90
2019-06-27T08:47:09.423Z,35.00
2019-06-27T08:49:55.073Z,35.30
2019-06-27T08:52:32.725Z,35.40
2019-06-27T08:55:08.612Z,35.40
2019-06-27T08:57:48.292Z,35.30
2019-06-27T09:00:26.566Z,35.40
2019-06-27T09:03:05.446Z,35.60
2019-06-27T09:05:41.320Z,35.90
2019-06-27T09:08:31.839Z,36.10
2019-06-27T09:11:09.907Z,36.50
2019-06-27T09:13:46.605Z,36.50
2019-06-27T09:16:26.566Z,36.50
2019-06-27T09:19:06.105Z,36.70
2019-06-27T09:21:40.110Z,36.90
2019-06-27T09:24:16.991Z,37.10
2019-06-27T09:26:56.916Z,37.20
2019-06-27T09:29:38.935Z,36.90
2019-06-27T09:32:25.184Z,36.90
2019-06-27T09:35:03.725Z,36.40
2019-06-27T09:40:38.345Z,36.60
2019-06-27T09:43:25.203Z,36.60
2019-06-27T09:45:59.583Z,37.00
2019-06-27T09:48:33.271Z,37.00
2019-06-27T09:51:06.992Z,37.20
2019-06-27T09:53:40.644Z,37.20
2019-06-27T09:56:14.728Z,37.00
2019-06-27T09:58:48.607Z,36.90
2019-06-27T10:01:22.309Z,36.90
2019-06-27T10:03:55.979Z,36.70
2019-06-27T10:06:29.772Z,36.90
2019-06-27T10:09:03.306Z,36.80
2019-06-27T10:11:37.930Z,35.90
2019-06-27T10:14:11.520Z,35.90
2019-06-27T10:16:45.283Z,36.20
2019-06-27T10:19:19.674Z,36.60
2019-06-27T10:21:54.113Z,36.70
2019-06-27T10:24:28.958Z,36.50
2019-06-27T10:27:03.386Z,36.40
2019-06-27T10:29:37.559Z,36.30
2019-06-27T10:32:11.233Z,35.20
2019-06-27T10:34:45.797Z,35.90
2019-06-27T10:37:19.841Z,35.90
2019-06-27T10:39:53.513Z,36.40
2019-06-27T10:42:27.143Z,36.70
2019-06-27T10:45:00.718Z,36.90
2019-06-27T10:47:35.526Z,37.10
2019-06-27T10:50:09.297Z,37.10
2019-06-27T10:52:45.522Z,37.00
2019-06-27T10:55:19.192Z,37.00
2019-06-27T10:57:53.332Z,37.20
2019-06-27T11:00:27.105Z,37.10
2019-06-27T11:03:14.828Z,36.80
2019-06-27T11:05:35.680Z,36.80
2019-06-27T11:08:10.192Z,37.10
2019-06-27T11:10:45.819Z,37.20
2019-06-27T11:13:19.589Z,37.20
2019-06-27T11:15:53.343Z,37.10
2019-06-27T11:18:27.130Z,37.20
2019-06-27T11:21:02.857Z,36.80
2019-06-27T11:23:37.320Z,37.00
2019-06-27T11:26:11.145Z,37.00
2019-06-27T11:28:44.712Z,37.10
2019-06-27T11:31:18.958Z,37.00
2019-06-27T11:33:53.391Z,36.80
2019-06-27T11:36:26.920Z,36.80
2019-06-27T11:39:00.567Z,36.10
2019-06-27T11:41:34.214Z,35.60
2019-06-27T11:44:07.801Z,35.30
2019-06-27T11:46:41.520Z,35.20
2019-06-27T11:49:15.124Z,35.10
2019-06-27T11:51:48.809Z,34.70
2019-06-27T11:54:22.440Z,34.70
2019-06-27T11:56:56.834Z,34.70
2019-06-27T11:59:31.261Z,34.80
2019-06-27T12:02:04.984Z,34.80
2019-06-27T12:04:38.669Z,34.80
2019-06-27T12:07:12.401Z,34.70
2019-06-27T12:09:45.976Z,34.80
2019-06-27T12:12:19.763Z,34.70
2019-06-27T12:14:54.216Z,34.60
2019-06-27T12:17:28.700Z,34.60
2019-06-27T12:20:02.565Z,34.50
2019-06-27T12:22:36.207Z,34.50
2019-06-27T12:25:10.534Z,34.20
2019-06-27T12:27:44.970Z,34.20
2019-06-27T12:30:18.719Z,34.20
2019-06-27T12:32:53.112Z,34.30
2019-06-27T12:35:26.019Z,34.40
2019-06-27T12:37:59.792Z,34.40
2019-06-27T12:40:33.345Z,34.30
2019-06-27T12:43:07.806Z,34.20
2019-06-27T12:45:41.591Z,34.20
2019-06-27T12:48:15.351Z,34.20
2019-06-27T12:50:49.030Z,34.20
2019-06-27T12:53:22.655Z,34.20
2019-06-27T12:55:56.231Z,34.10
2019-06-27T12:58:29.824Z,34.00
2019-06-27T13:01:03.871Z,33.80
2019-06-27T13:03:38.364Z,33.80
2019-06-27T13:06:12.316Z,33.80
2019-06-27T13:08:46.923Z,33.60
2019-06-27T13:11:20.634Z,33.50
2019-06-27T13:13:54.982Z,33.60
2019-06-27T13:16:31.055Z,33.60
2019-06-27T13:19:02.415Z,33.70
2019-06-27T13:21:36.134Z,33.70
2019-06-27T13:24:09.990Z,33.70
2019-06-27T13:26:43.639Z,33.70
2019-06-27T13:29:18.253Z,33.50
2019-06-27T13:31:51.961Z,33.40
2019-06-27T13:34:39.467Z,33.40
2019-06-27T13:36:59.516Z,33.50
2019-06-27T13:39:33.377Z,33.40
2019-06-27T13:42:07.933Z,33.50
2019-06-27T13:44:41.679Z,33.50
2019-06-27T13:47:15.322Z,33.50
2019-06-27T13:49:49.813Z,33.20
2019-06-27T13:52:24.356Z,33.30
2019-06-27T13:55:05.054Z,33.30
2019-06-27T13:57:38.832Z,33.30
2019-06-27T14:00:12.460Z,33.40
2019-06-27T14:05:34.915Z,33.60
2019-06-27T14:08:08.647Z,33.70
2019-06-27T14:10:42.270Z,33.80
2019-06-27T14:13:16.357Z,33.70
2019-06-27T14:15:56.169Z,33.70
2019-06-27T14:18:30.067Z,33.70
2019-06-27T14:21:04.342Z,33.90
2019-06-27T14:23:38.006Z,33.90
2019-06-27T14:26:11.709Z,33.90
2019-06-27T14:28:45.302Z,33.90
2019-06-27T14:31:19.505Z,34.00
2019-06-27T14:33:53.216Z,33.90
2019-06-27T14:36:26.902Z,33.90
2019-06-27T14:39:00.636Z,33.70
2019-06-27T14:41:34.320Z,33.60
2019-06-27T14:44:07.911Z,33.60
2019-06-27T14:46:42.368Z,33.60
2019-06-27T14:49:16.240Z,33.60
2019-06-27T14:51:49.851Z,33.50
2019-06-27T14:54:23.458Z,33.60
2019-06-27T14:56:57.245Z,33.60
2019-06-27T14:59:31.771Z,33.60
2019-06-27T15:02:06.110Z,33.60
2019-06-27T15:04:39.728Z,33.50
2019-06-27T15:07:13.413Z,33.50
2019-06-27T15:09:47.900Z,33.50
2019-06-27T15:12:21.387Z,33.50
2019-06-27T15:14:55.240Z,33.50
2019-06-27T15:17:29.739Z,33.00
2019-06-27T15:20:04.430Z,32.90
2019-06-27T15:22:38.053Z,33.00
2019-06-27T15:25:12.407Z,33.10
2019-06-27T15:27:46.202Z,33.10
2019-06-27T15:30:19.926Z,33.10
2019-06-27T15:32:53.670Z,33.00
2019-06-27T15:35:28.117Z,33.00
2019-06-27T15:38:01.698Z,32.90
2019-06-27T15:40:35.521Z,32.80
2019-06-27T15:43:09.115Z,32.70
2019-06-27T15:45:43.456Z,32.60
2019-06-27T15:48:17.044Z,32.60
2019-06-27T15:50:50.814Z,32.40
2019-06-27T15:53:24.566Z,32.40
2019-06-27T15:55:58.217Z,32.50
2019-06-27T15:58:31.766Z,32.40
2019-06-27T16:01:05.482Z,32.40
2019-06-27T16:03:39.890Z,32.30
2019-06-27T16:06:15.005Z,32.30
2019-06-27T16:08:47.178Z,32.40
2019-06-27T16:11:20.895Z,32.30
2019-06-27T16:13:54.607Z,32.20
2019-06-27T16:16:29.044Z,32.00
2019-06-27T16:19:02.613Z,32.10
2019-06-27T16:21:36.244Z,32.10
2019-06-27T16:24:09.846Z,32.20
2019-06-27T16:26:43.544Z,32.20
2019-06-27T16:29:17.851Z,32.20
2019-06-27T16:31:51.404Z,32.20
2019-06-27T16:34:28.709Z,32.20
2019-06-27T16:36:58.754Z,32.20
2019-06-27T16:39:32.277Z,32.20
2019-06-27T16:42:05.967Z,32.10
2019-06-27T16:44:39.568Z,32.10
2019-06-27T16:47:13.103Z,32.00
2019-06-27T16:49:46.727Z,32.00
2019-06-27T16:52:20.371Z,32.10
2019-06-27T16:54:54.031Z,32.00
2019-06-27T16:57:27.675Z,32.00
2019-06-27T17:00:01.305Z,32.00
2019-06-27T17:02:35.048Z,32.00
2019-06-27T17:05:08.719Z,32.10
2019-06-27T17:07:43.007Z,32.00
2019-06-27T17:10:16.684Z,31.80
2019-06-27T17:12:51.108Z,31.60
2019-06-27T17:15:24.668Z,31.60
2019-06-27T17:17:58.317Z,31.60
2019-06-27T17:20:32.071Z,31.60
2019-06-27T17:23:05.893Z,31.50
2019-06-27T17:25:39.506Z,31.50
2019-06-27T17:28:13.124Z,31.40
2019-06-27T17:30:47.509Z,31.30
2019-06-27T17:33:21.253Z,31.30
2019-06-27T17:35:54.847Z,31.30
2019-06-27T17:38:29.212Z,31.20
2019-06-27T17:41:03.671Z,31.20
2019-06-27T17:43:37.314Z,31.20
2019-06-27T17:46:11.619Z,31.10
2019-06-27T17:48:45.247Z,31.10
2019-06-27T17:51:18.774Z,31.00
2019-06-27T17:53:52.522Z,31.00
2019-06-27T17:56:26.319Z,31.00
2019-06-27T17:58:59.982Z,30.90
2019-06-27T18:01:33.629Z,30.90
2019-06-27T18:04:08.008Z,30.80
2019-06-27T18:06:41.710Z,30.70
2019-06-27T18:09:15.241Z,30.70
2019-06-27T18:11:49.711Z,30.50
2019-06-27T18:14:23.515Z,30.50
2019-06-27T18:16:58.034Z,30.30
2019-06-27T18:19:31.593Z,30.30
2019-06-27T18:22:05.360Z,30.20
2019-06-27T18:24:41.680Z,30.10
2019-06-27T18:27:12.888Z,30.00
2019-06-27T18:29:48.067Z,30.00
2019-06-27T18:32:20.038Z,30.00
2019-06-27T18:34:53.696Z,30.00
2019-06-27T18:37:30.022Z,30.00
2019-06-27T18:40:01.069Z,29.90
2019-06-27T18:42:34.767Z,29.80
2019-06-27T18:45:09.223Z,29.60
2019-06-27T18:47:42.877Z,29.60
2019-06-27T18:50:16.522Z,29.50
2019-06-27T18:52:50.290Z,29.40
2019-06-27T18:55:23.923Z,29.30
2019-06-27T18:57:57.484Z,29.20
2019-06-27T19:00:31.152Z,29.20
2019-06-27T19:03:05.626Z,29.10
2019-06-27T19:05:39.323Z,29.10
2019-06-27T19:08:13.059Z,29.10
2019-06-27T19:10:46.813Z,28.90
2019-06-27T19:13:20.572Z,28.90
2019-06-27T19:15:54.077Z,28.80
2019-06-27T19:18:33.483Z,28.80
2019-06-27T19:21:07.824Z,28.70
2019-06-27T19:26:35.139Z,28.60
2019-06-27T19:29:09.591Z,28.50
2019-06-27T19:31:43.434Z,28.50
2019-06-27T19:34:17.051Z,28.40
2019-06-27T19:36:50.747Z,28.30
2019-06-27T19:39:24.531Z,28.10
2019-06-27T19:41:58.157Z,28.00
2019-06-27T19:44:31.930Z,28.00
2019-06-27T19:47:05.484Z,27.90
2019-06-27T19:49:39.827Z,27.70
2019-06-27T19:52:14.383Z,27.60
2019-06-27T19:54:48.057Z,27.60
2019-06-27T19:57:21.856Z,27.60
2019-06-27T19:59:55.463Z,27.50
2019-06-27T20:02:29.811Z,27.50
2019-06-27T20:05:04.252Z,27.40
2019-06-27T20:07:37.969Z,27.40
2019-06-27T20:10:12.018Z,27.40
2019-06-27T20:12:45.115Z,27.30
2019-06-27T20:15:18.660Z,27.20
2019-06-27T20:17:53.028Z,27.10
2019-06-27T20:20:26.620Z,27.10
2019-06-27T20:23:00.185Z,27.10
2019-06-27T20:25:33.814Z,27.10
2019-06-27T20:28:07.418Z,26.90
2019-06-27T20:30:40.923Z,26.90
2019-06-27T20:33:14.521Z,26.90
2019-06-27T20:35:48.144Z,26.90
2019-06-27T20:38:34.433Z,26.80
2019-06-27T20:40:56.407Z,26.70
2019-06-27T20:43:30.901Z,26.70
2019-06-27T20:46:04.497Z,26.60
2019-06-27T20:48:38.112Z,26.60
2019-06-27T20:51:11.809Z,26.50
2019-06-27T20:53:45.475Z,26.50
2019-06-27T20:56:19.226Z,26.40
2019-06-27T20:58:52.913Z,26.40
2019-06-27T21:01:26.494Z,26.30
2019-06-27T21:04:00.455Z,26.30
2019-06-27T21:06:33.998Z,26.20
2019-06-27T21:09:07.615Z,26.20
2019-06-27T21:11:41.931Z,25.90
2019-06-27T21:14:15.668Z,25.90
2019-06-27T21:16:49.232Z,25.70
2019-06-27T21:19:23.548Z,25.30
2019-06-27T21:21:58.901Z,25.20
2019-06-27T21:24:31.519Z,25.10
2019-06-27T21:27:05.040Z,25.10
2019-06-27T21:29:39.596Z,25.00
2019-06-27T21:32:13.266Z,25.00
2019-06-27T21:34:46.855Z,25.00
2019-06-27T21:37:21.320Z,24.60
2019-06-27T21:39:55.736Z,24.50
2019-06-27T21:42:29.557Z,24.40
2019-06-27T21:45:03.149Z,24.40
2019-06-27T21:47:36.743Z,24.40
2019-06-27T21:50:10.419Z,24.30
2019-06-27T21:52:44.259Z,24.20
2019-06-27T21:55:18.029Z,24.10
2019-06-27T21:57:51.657Z,24.10
2019-06-27T22:00:25.270Z,24.00
2019-06-27T22:02:58.800Z,24.00
2019-06-27T22:05:33.190Z,24.00
2019-06-27T22:08:06.828Z,23.90
2019-06-27T22:10:40.387Z,23.90
2019-06-27T22:13:14.729Z,23.90
2019-06-27T22:15:49.090Z,23.90
2019-06-27T22:18:22.816Z,23.90
2019-06-27T22:20:57.323Z,23.80
2019-06-27T22:23:30.951Z,23.80
2019-06-27T22:26:04.679Z,23.80
2019-06-27T22:28:38.247Z,23.50
2019-06-27T22:31:11.996Z,23.40
2019-06-27T22:33:46.267Z,23.20
2019-06-27T22:36:19.902Z,23.20
2019-06-27T22:38:59.195Z,23.20
2019-06-27T22:41:38.734Z,23.20
2019-06-27T22:44:18.185Z,23.10
2019-06-27T22:46:58.118Z,23.00
2019-06-27T22:49:31.156Z,23.00
2019-06-27T22:52:25.597Z,22.90
2019-06-27T22:55:00.012Z,22.80
2019-06-27T22:57:33.779Z,22.70
2019-06-27T23:00:07.429Z,22.60
2019-06-27T23:02:41.072Z,22.60
2019-06-27T23:05:14.648Z,22.60
2019-06-27T23:07:49.094Z,22.70
2019-06-27T23:10:23.397Z,22.60
2019-06-27T23:12:57.074Z,22.60
2019-06-27T23:15:34.893Z,22.60
2019-06-27T23:18:08.662Z,22.60
2019-06-27T23:20:42.498Z,22.40
2019-06-27T23:23:15.967Z,22.40
2019-06-27T23:25:49.513Z,22.40
2019-06-27T23:28:23.082Z,22.30
2019-06-27T23:30:56.618Z,22.30
2019-06-27T23:33:30.151Z,22.20
2019-06-27T23:36:03.783Z,22.20
2019-06-27T23:38:37.384Z,22.10
2019-06-27T23:41:11.040Z,22.10
2019-06-27T23:43:44.639Z,22.00
2019-06-27T23:46:24.603Z,22.00
2019-06-27T23:48:58.973Z,21.90
2019-06-27T23:51:32.623Z,21.90
2019-06-27T23:54:07.015Z,21.90
2019-06-27T23:56:40.750Z,21.90
2019-06-27T23:59:14.456Z,21.80
